sensor_id;sensor_type;location;lat;lon;timestamp;temperature;humidity
3156;DHT22;1588;50.892;7.082;2023-02-16T00:04:32;2.20;99.90
3156;DHT22;1588;50.892;7.082;2023-02-16T00:09:39;2.10;99.90
3156;DHT22;1588;50.892;7.082;2023-02-16T00:14:43;2.10;99.90
3156;DHT22;1588;50.892;7.082;2023-02-16T00:19:46;2.30;99.90
3156;DHT22;1588;50.892;7.082;2023-02-16T00:24:54;2.20;99.90
3156;DHT22;1588;50.892;7.082;2023-02-16T00:30:02;2.10;99.90
3156;DHT22;1588;50.892;7.082;2023-02-16T00:35:14;2.00;99.90
3156;DHT22;1588;50.892;7.082;2023-02-16T00:40:22;1.80;99.90
3156;DHT22;1588;50.892;7.082;2023-02-16T00:45:28;1.80;99.90
3156;DHT22;1588;50.892;7.082;2023-02-16T00:50:35;1.60;99.90
3156;DHT22;1588;50.892;7.082;2023-02-16T00:55:38;1.50;99.90
3156;DHT22;1588;50.892;7.082;2023-02-16T01:00:43;1.50;99.90
3156;DHT22;1588;50.892;7.082;2023-02-16T01:05:50;1.40;99.90
3156;DHT22;1588;50.892;7.082;2023-02-16T01:11:18;1.40;99.90
3156;DHT22;1588;50.892;7.082;2023-02-16T01:16:22;1.30;99.90
3156;DHT22;1588;50.892;7.082;2023-02-16T01:21:26;1.30;99.90
3156;DHT22;1588;50.892;7.082;2023-02-16T01:26:29;1.20;99.90
3156;DHT22;1588;50.892;7.082;2023-02-16T01:31:33;1.10;99.90
3156;DHT22;1588;50.892;7.082;2023-02-16T01:36:41;1.00;99.90
3156;DHT22;1588;50.892;7.082;2023-02-16T01:42:13;1.10;99.90
3156;DHT22;1588;50.892;7.082;2023-02-16T01:47:31;1.10;99.90
3156;DHT22;1588;50.892;7.082;2023-02-16T01:52:37;1.40;99.90
3156;DHT22;1588;50.892;7.082;2023-02-16T01:57:45;1.40;99.90
3156;DHT22;1588;50.892;7.082;2023-02-16T02:02:49;1.40;99.90
3156;DHT22;1588;50.892;7.082;2023-02-16T02:07:58;1.20;99.90
3156;DHT22;1588;50.892;7.082;2023-02-16T02:13:05;1.10;99.90
3156;DHT22;1588;50.892;7.082;2023-02-16T02:18:08;1.00;99.90
3156;DHT22;1588;50.892;7.082;2023-02-16T02:23:42;0.90;99.90
3156;DHT22;1588;50.892;7.082;2023-02-16T02:28:56;0.70;99.90
3156;DHT22;1588;50.892;7.082;2023-02-16T02:34:10;0.60;99.90
3156;DHT22;1588;50.892;7.082;2023-02-16T02:39:22;0.50;99.90
3156;DHT22;1588;50.892;7.082;2023-02-16T02:44:41;0.60;99.90
3156;DHT22;1588;50.892;7.082;2023-02-16T02:49:53;0.50;99.90
3156;DHT22;1588;50.892;7.082;2023-02-16T02:55:06;0.50;99.90
3156;DHT22;1588;50.892;7.082;2023-02-16T03:00:40;0.50;99.90
3156;DHT22;1588;50.892;7.082;2023-02-16T03:05:59;0.50;99.90
3156;DHT22;1588;50.892;7.082;2023-02-16T03:11:12;0.50;99.90
3156;DHT22;1588;50.892;7.082;2023-02-16T03:16:52;0.50;99.90
3156;DHT22;1588;50.892;7.082;2023-02-16T03:22:23;0.40;99.90
3156;DHT22;1588;50.892;7.082;2023-02-16T03:27:54;0.30;99.90
3156;DHT22;1588;50.892;7.082;2023-02-16T03:33:27;0.40;99.90
3156;DHT22;1588;50.892;7.082;2023-02-16T03:38:41;0.40;99.90
3156;DHT22;1588;50.892;7.082;2023-02-16T03:43:54;0.30;99.90
3156;DHT22;1588;50.892;7.082;2023-02-16T03:49:05;0.20;99.90
3156;DHT22;1588;50.892;7.082;2023-02-16T03:54:11;0.20;99.90
3156;DHT22;1588;50.892;7.082;2023-02-16T03:59:24;0.20;99.90
3156;DHT22;1588;50.892;7.082;2023-02-16T04:04:38;0.40;99.90
3156;DHT22;1588;50.892;7.082;2023-02-16T04:09:50;0.70;99.90
3156;DHT22;1588;50.892;7.082;2023-02-16T04:15:04;0.60;99.90
3156;DHT22;1588;50.892;7.082;2023-02-16T04:20:18;0.40;99.90
3156;DHT22;1588;50.892;7.082;2023-02-16T04:25:31;0.50;99.90
3156;DHT22;1588;50.892;7.082;2023-02-16T04:30:35;0.50;99.90
3156;DHT22;1588;50.892;7.082;2023-02-16T04:35:49;0.60;99.90
3156;DHT22;1588;50.892;7.082;2023-02-16T04:40:57;0.60;99.90
3156;DHT22;1588;50.892;7.082;2023-02-16T04:46:09;0.60;99.90
3156;DHT22;1588;50.892;7.082;2023-02-16T04:51:33;0.80;99.90
3156;DHT22;1588;50.892;7.082;2023-02-16T04:56:38;0.80;99.90
3156;DHT22;1588;50.892;7.082;2023-02-16T05:01:50;0.90;99.90
3156;DHT22;1588;50.892;7.082;2023-02-16T05:07:05;1.00;99.90
3156;DHT22;1588;50.892;7.082;2023-02-16T05:12:17;1.00;99.90
3156;DHT22;1588;50.892;7.082;2023-02-16T05:17:47;1.10;99.90
3156;DHT22;1588;50.892;7.082;2023-02-16T05:23:01;1.30;99.90
3156;DHT22;1588;50.892;7.082;2023-02-16T05:28:13;1.30;99.90
3156;DHT22;1588;50.892;7.082;2023-02-16T05:33:28;1.30;99.90
3156;DHT22;1588;50.892;7.082;2023-02-16T05:38:42;1.30;99.90
3156;DHT22;1588;50.892;7.082;2023-02-16T05:44:00;1.40;99.90
3156;DHT22;1588;50.892;7.082;2023-02-16T05:49:15;1.50;99.90
3156;DHT22;1588;50.892;7.082;2023-02-16T05:54:31;1.40;99.90
3156;DHT22;1588;50.892;7.082;2023-02-16T05:59:44;1.60;99.90
3156;DHT22;1588;50.892;7.082;2023-02-16T06:04:56;1.60;99.90
3156;DHT22;1588;50.892;7.082;2023-02-16T06:10:13;1.50;99.90
3156;DHT22;1588;50.892;7.082;2023-02-16T06:15:26;1.40;99.90
3156;DHT22;1588;50.892;7.082;2023-02-16T06:20:40;1.30;99.90
3156;DHT22;1588;50.892;7.082;2023-02-16T06:25:54;1.40;99.90
3156;DHT22;1588;50.892;7.082;2023-02-16T06:31:03;1.40;99.90
3156;DHT22;1588;50.892;7.082;2023-02-16T06:36:19;1.60;99.90
3156;DHT22;1588;50.892;7.082;2023-02-16T06:41:45;1.60;99.90
3156;DHT22;1588;50.892;7.082;2023-02-16T06:47:03;1.50;99.90
3156;DHT22;1588;50.892;7.082;2023-02-16T06:52:13;1.60;99.90
3156;DHT22;1588;50.892;7.082;2023-02-16T06:57:49;1.80;99.90
3156;DHT22;1588;50.892;7.082;2023-02-16T07:03:12;1.90;99.90
3156;DHT22;1588;50.892;7.082;2023-02-16T07:08:28;2.00;99.90
3156;DHT22;1588;50.892;7.082;2023-02-16T07:13:42;2.10;99.90
3156;DHT22;1588;50.892;7.082;2023-02-16T07:18:57;2.40;99.90
3156;DHT22;1588;50.892;7.082;2023-02-16T07:24:00;2.50;99.90
3156;DHT22;1588;50.892;7.082;2023-02-16T07:29:11;2.70;99.90
3156;DHT22;1588;50.892;7.082;2023-02-16T07:34:14;2.90;99.90
3156;DHT22;1588;50.892;7.082;2023-02-16T07:39:20;3.00;99.90
3156;DHT22;1588;50.892;7.082;2023-02-16T07:44:27;3.10;99.90
3156;DHT22;1588;50.892;7.082;2023-02-16T07:49:29;3.20;99.90
3156;DHT22;1588;50.892;7.082;2023-02-16T07:54:32;3.30;99.90
3156;DHT22;1588;50.892;7.082;2023-02-16T07:59:53;3.30;99.90
3156;DHT22;1588;50.892;7.082;2023-02-16T08:04:55;3.40;99.90
3156;DHT22;1588;50.892;7.082;2023-02-16T08:10:13;3.40;99.90
3156;DHT22;1588;50.892;7.082;2023-02-16T08:15:17;3.60;99.90
3156;DHT22;1588;50.892;7.082;2023-02-16T08:20:19;3.80;99.90
3156;DHT22;1588;50.892;7.082;2023-02-16T08:25:22;4.00;99.90
3156;DHT22;1588;50.892;7.082;2023-02-16T08:30:34;4.20;99.90
3156;DHT22;1588;50.892;7.082;2023-02-16T08:35:38;4.30;99.90
3156;DHT22;1588;50.892;7.082;2023-02-16T08:40:46;4.50;99.90
3156;DHT22;1588;50.892;7.082;2023-02-16T08:45:54;4.50;99.90
3156;DHT22;1588;50.892;7.082;2023-02-16T08:50:57;4.50;99.90
3156;DHT22;1588;50.892;7.082;2023-02-16T08:56:02;4.60;99.90
3156;DHT22;1588;50.892;7.082;2023-02-16T09:01:08;4.60;99.90
3156;DHT22;1588;50.892;7.082;2023-02-16T09:06:12;4.80;99.90
3156;DHT22;1588;50.892;7.082;2023-02-16T09:11:19;5.00;99.90
3156;DHT22;1588;50.892;7.082;2023-02-16T09:16:24;5.30;99.90
3156;DHT22;1588;50.892;7.082;2023-02-16T09:21:45;5.90;99.90
3156;DHT22;1588;50.892;7.082;2023-02-16T09:26:50;6.00;99.90
3156;DHT22;1588;50.892;7.082;2023-02-16T09:31:54;6.10;99.90
3156;DHT22;1588;50.892;7.082;2023-02-16T09:36:57;6.70;99.90
3156;DHT22;1588;50.892;7.082;2023-02-16T09:42:05;7.30;99.90
3156;DHT22;1588;50.892;7.082;2023-02-16T09:47:20;9.40;99.90
3156;DHT22;1588;50.892;7.082;2023-02-16T09:52:30;12.30;99.90
3156;DHT22;1588;50.892;7.082;2023-02-16T09:57:45;12.50;99.90
3156;DHT22;1588;50.892;7.082;2023-02-16T10:03:04;13.40;99.90
3156;DHT22;1588;50.892;7.082;2023-02-16T10:08:13;13.40;99.90
3156;DHT22;1588;50.892;7.082;2023-02-16T10:13:21;12.40;99.90
3156;DHT22;1588;50.892;7.082;2023-02-16T10:18:31;13.10;99.90
3156;DHT22;1588;50.892;7.082;2023-02-16T10:23:43;12.30;99.90
3156;DHT22;1588;50.892;7.082;2023-02-16T10:28:49;10.90;99.90
3156;DHT22;1588;50.892;7.082;2023-02-16T10:34:14;10.20;99.90
3156;DHT22;1588;50.892;7.082;2023-02-16T10:39:24;10.00;99.90
3156;DHT22;1588;50.892;7.082;2023-02-16T10:44:31;9.70;99.90
3156;DHT22;1588;50.892;7.082;2023-02-16T10:49:37;9.50;99.90
3156;DHT22;1588;50.892;7.082;2023-02-16T10:54:47;9.50;99.90
3156;DHT22;1588;50.892;7.082;2023-02-16T11:00:05;9.60;99.90
3156;DHT22;1588;50.892;7.082;2023-02-16T11:05:32;9.80;99.90
3156;DHT22;1588;50.892;7.082;2023-02-16T11:10:43;9.90;99.90
3156;DHT22;1588;50.892;7.082;2023-02-16T11:15:54;10.00;99.90
3156;DHT22;1588;50.892;7.082;2023-02-16T11:20:58;10.40;99.90
3156;DHT22;1588;50.892;7.082;2023-02-16T11:26:21;10.50;99.90
3156;DHT22;1588;50.892;7.082;2023-02-16T11:31:31;10.40;99.90
3156;DHT22;1588;50.892;7.082;2023-02-16T11:36:41;10.30;99.90
3156;DHT22;1588;50.892;7.082;2023-02-16T11:41:49;10.30;99.90
3156;DHT22;1588;50.892;7.082;2023-02-16T11:46:55;10.30;99.90
3156;DHT22;1588;50.892;7.082;2023-02-16T11:52:16;10.40;99.90
3156;DHT22;1588;50.892;7.082;2023-02-16T11:57:24;10.60;99.90
3156;DHT22;1588;50.892;7.082;2023-02-16T12:02:41;10.70;99.90
3156;DHT22;1588;50.892;7.082;2023-02-16T12:08:06;10.70;99.90
3156;DHT22;1588;50.892;7.082;2023-02-16T12:13:20;10.60;99.90
3156;DHT22;1588;50.892;7.082;2023-02-16T12:18:29;10.50;99.90
3156;DHT22;1588;50.892;7.082;2023-02-16T12:23:38;10.40;99.90
3156;DHT22;1588;50.892;7.082;2023-02-16T12:28:53;10.30;99.90
3156;DHT22;1588;50.892;7.082;2023-02-16T12:34:22;10.30;99.90
3156;DHT22;1588;50.892;7.082;2023-02-16T12:39:40;10.10;99.90
3156;DHT22;1588;50.892;7.082;2023-02-16T12:44:58;10.20;99.90
3156;DHT22;1588;50.892;7.082;2023-02-16T12:50:05;10.30;99.90
3156;DHT22;1588;50.892;7.082;2023-02-16T12:55:22;10.30;99.90
3156;DHT22;1588;50.892;7.082;2023-02-16T13:00:36;10.30;99.90
3156;DHT22;1588;50.892;7.082;2023-02-16T13:05:40;10.40;99.90
3156;DHT22;1588;50.892;7.082;2023-02-16T13:10:53;10.40;99.90
3156;DHT22;1588;50.892;7.082;2023-02-16T13:16:04;10.60;99.90
3156;DHT22;1588;50.892;7.082;2023-02-16T13:21:09;10.60;99.90
3156;DHT22;1588;50.892;7.082;2023-02-16T13:26:34;10.70;99.90
3156;DHT22;1588;50.892;7.082;2023-02-16T13:31:48;10.60;99.90
3156;DHT22;1588;50.892;7.082;2023-02-16T13:37:12;10.60;99.90
3156;DHT22;1588;50.892;7.082;2023-02-16T13:47:59;10.80;99.90
3156;DHT22;1588;50.892;7.082;2023-02-16T13:53:14;10.80;99.90
3156;DHT22;1588;50.892;7.082;2023-02-16T13:58:30;10.80;99.90
3156;DHT22;1588;50.892;7.082;2023-02-16T14:03:35;10.90;99.90
3156;DHT22;1588;50.892;7.082;2023-02-16T14:08:40;10.90;99.90
3156;DHT22;1588;50.892;7.082;2023-02-16T14:13:49;10.90;99.90
3156;DHT22;1588;50.892;7.082;2023-02-16T14:18:55;10.90;99.90
3156;DHT22;1588;50.892;7.082;2023-02-16T14:23:59;10.90;99.90
3156;DHT22;1588;50.892;7.082;2023-02-16T14:29:15;10.90;99.90
3156;DHT22;1588;50.892;7.082;2023-02-16T14:34:24;10.90;99.90
3156;DHT22;1588;50.892;7.082;2023-02-16T14:39:29;10.80;99.90
3156;DHT22;1588;50.892;7.082;2023-02-16T14:44:42;10.80;99.90
3156;DHT22;1588;50.892;7.082;2023-02-16T14:55:37;10.70;99.90
3156;DHT22;1588;50.892;7.082;2023-02-16T15:00:47;10.70;99.90
3156;DHT22;1588;50.892;7.082;2023-02-16T15:05:56;10.70;99.90
3156;DHT22;1588;50.892;7.082;2023-02-16T15:11:14;10.80;99.90
3156;DHT22;1588;50.892;7.082;2023-02-16T15:16:20;10.70;99.90
3156;DHT22;1588;50.892;7.082;2023-02-16T15:21:33;10.70;99.90
3156;DHT22;1588;50.892;7.082;2023-02-16T15:26:35;10.70;99.90
3156;DHT22;1588;50.892;7.082;2023-02-16T15:31:40;10.60;99.90
3156;DHT22;1588;50.892;7.082;2023-02-16T15:36:48;10.60;99.90
3156;DHT22;1588;50.892;7.082;2023-02-16T15:42:09;10.60;99.90
3156;DHT22;1588;50.892;7.082;2023-02-16T15:47:16;10.60;99.90
3156;DHT22;1588;50.892;7.082;2023-02-16T15:52:28;10.60;99.90
3156;DHT22;1588;50.892;7.082;2023-02-16T15:57:35;10.60;99.90
3156;DHT22;1588;50.892;7.082;2023-02-16T16:02:46;10.50;99.90
3156;DHT22;1588;50.892;7.082;2023-02-16T16:07:49;10.40;99.90
3156;DHT22;1588;50.892;7.082;2023-02-16T16:12:55;10.20;99.90
3156;DHT22;1588;50.892;7.082;2023-02-16T16:18:00;10.10;99.90
3156;DHT22;1588;50.892;7.082;2023-02-16T16:23:24;9.90;99.90
3156;DHT22;1588;50.892;7.082;2023-02-16T16:28:34;9.90;99.90
3156;DHT22;1588;50.892;7.082;2023-02-16T16:33:59;9.80;99.90
3156;DHT22;1588;50.892;7.082;2023-02-16T16:39:23;9.60;99.90
3156;DHT22;1588;50.892;7.082;2023-02-16T16:44:31;9.40;99.90
3156;DHT22;1588;50.892;7.082;2023-02-16T16:49:36;9.40;99.90
3156;DHT22;1588;50.892;7.082;2023-02-16T16:54:48;9.20;99.90
3156;DHT22;1588;50.892;7.082;2023-02-16T16:59:52;9.10;99.90
3156;DHT22;1588;50.892;7.082;2023-02-16T17:04:56;9.00;99.90
3156;DHT22;1588;50.892;7.082;2023-02-16T17:09:59;9.00;99.90
3156;DHT22;1588;50.892;7.082;2023-02-16T17:15:02;8.90;99.90
3156;DHT22;1588;50.892;7.082;2023-02-16T17:20:12;9.00;99.90
3156;DHT22;1588;50.892;7.082;2023-02-16T17:25:15;8.90;99.90
3156;DHT22;1588;50.892;7.082;2023-02-16T17:30:19;8.80;99.90
3156;DHT22;1588;50.892;7.082;2023-02-16T17:35:23;8.80;99.90
3156;DHT22;1588;50.892;7.082;2023-02-16T17:40:26;8.80;99.90
3156;DHT22;1588;50.892;7.082;2023-02-16T17:45:29;8.80;99.90
3156;DHT22;1588;50.892;7.082;2023-02-16T17:50:34;8.70;99.90
3156;DHT22;1588;50.892;7.082;2023-02-16T17:55:37;8.80;99.90
3156;DHT22;1588;50.892;7.082;2023-02-16T18:00:40;9.10;99.90
3156;DHT22;1588;50.892;7.082;2023-02-16T18:05:45;9.20;99.90
3156;DHT22;1588;50.892;7.082;2023-02-16T18:10:51;9.20;99.90
3156;DHT22;1588;50.892;7.082;2023-02-16T18:15:56;9.30;99.90
3156;DHT22;1588;50.892;7.082;2023-02-16T18:21:01;9.40;99.90
3156;DHT22;1588;50.892;7.082;2023-02-16T18:26:05;9.40;99.90
3156;DHT22;1588;50.892;7.082;2023-02-16T18:31:12;9.40;99.90
3156;DHT22;1588;50.892;7.082;2023-02-16T18:36:19;9.50;99.90
3156;DHT22;1588;50.892;7.082;2023-02-16T18:41:22;9.50;99.90
3156;DHT22;1588;50.892;7.082;2023-02-16T18:46:24;9.50;99.90
3156;DHT22;1588;50.892;7.082;2023-02-16T18:51:29;9.50;99.90
3156;DHT22;1588;50.892;7.082;2023-02-16T18:56:35;9.50;99.90
3156;DHT22;1588;50.892;7.082;2023-02-16T19:01:40;9.50;99.90
3156;DHT22;1588;50.892;7.082;2023-02-16T19:06:45;9.40;99.90
3156;DHT22;1588;50.892;7.082;2023-02-16T19:11:48;9.40;99.90
3156;DHT22;1588;50.892;7.082;2023-02-16T19:16:51;9.40;99.90
3156;DHT22;1588;50.892;7.082;2023-02-16T19:21:56;9.40;99.90
3156;DHT22;1588;50.892;7.082;2023-02-16T19:26:58;9.50;99.90
3156;DHT22;1588;50.892;7.082;2023-02-16T19:32:01;9.40;99.90
3156;DHT22;1588;50.892;7.082;2023-02-16T19:37:06;9.30;99.90
3156;DHT22;1588;50.892;7.082;2023-02-16T19:42:09;9.30;99.90
3156;DHT22;1588;50.892;7.082;2023-02-16T19:47:11;9.30;99.90
3156;DHT22;1588;50.892;7.082;2023-02-16T19:52:16;9.30;99.90
3156;DHT22;1588;50.892;7.082;2023-02-16T19:57:19;9.20;99.90
3156;DHT22;1588;50.892;7.082;2023-02-16T20:02:23;9.20;99.90
3156;DHT22;1588;50.892;7.082;2023-02-16T20:07:27;9.10;99.90
3156;DHT22;1588;50.892;7.082;2023-02-16T20:12:30;9.10;99.90
3156;DHT22;1588;50.892;7.082;2023-02-16T20:17:33;9.20;99.90
3156;DHT22;1588;50.892;7.082;2023-02-16T20:22:37;9.20;99.90
3156;DHT22;1588;50.892;7.082;2023-02-16T20:27:39;9.20;99.90
3156;DHT22;1588;50.892;7.082;2023-02-16T20:32:42;9.20;99.90
3156;DHT22;1588;50.892;7.082;2023-02-16T20:37:46;9.20;99.90
3156;DHT22;1588;50.892;7.082;2023-02-16T20:42:49;9.10;99.90
3156;DHT22;1588;50.892;7.082;2023-02-16T20:47:54;9.20;99.90
3156;DHT22;1588;50.892;7.082;2023-02-16T20:52:58;9.20;99.90
3156;DHT22;1588;50.892;7.082;2023-02-16T20:58:01;9.20;99.90
3156;DHT22;1588;50.892;7.082;2023-02-16T21:03:03;9.20;99.90
3156;DHT22;1588;50.892;7.082;2023-02-16T21:08:08;9.20;99.90
3156;DHT22;1588;50.892;7.082;2023-02-16T21:13:11;9.10;99.90
3156;DHT22;1588;50.892;7.082;2023-02-16T21:18:15;9.00;99.90
3156;DHT22;1588;50.892;7.082;2023-02-16T21:23:21;8.80;99.90
3156;DHT22;1588;50.892;7.082;2023-02-16T21:28:25;8.70;99.90
3156;DHT22;1588;50.892;7.082;2023-02-16T21:33:37;8.70;99.90
3156;DHT22;1588;50.892;7.082;2023-02-16T21:38:52;8.60;99.90
3156;DHT22;1588;50.892;7.082;2023-02-16T21:44:20;8.70;99.90
3156;DHT22;1588;50.892;7.082;2023-02-16T21:49:52;8.60;99.90
3156;DHT22;1588;50.892;7.082;2023-02-16T21:54:59;8.60;99.90
3156;DHT22;1588;50.892;7.082;2023-02-16T22:00:25;8.60;99.90
3156;DHT22;1588;50.892;7.082;2023-02-16T22:05:34;8.60;99.90
3156;DHT22;1588;50.892;7.082;2023-02-16T22:10:54;8.60;99.90
3156;DHT22;1588;50.892;7.082;2023-02-16T22:16:18;8.60;99.90
3156;DHT22;1588;50.892;7.082;2023-02-16T22:21:36;8.60;99.90
3156;DHT22;1588;50.892;7.082;2023-02-16T22:27:21;8.60;99.90
3156;DHT22;1588;50.892;7.082;2023-02-16T22:32:37;8.60;99.90
3156;DHT22;1588;50.892;7.082;2023-02-16T22:37:48;8.70;99.90
3156;DHT22;1588;50.892;7.082;2023-02-16T22:43:02;8.80;99.90
3156;DHT22;1588;50.892;7.082;2023-02-16T22:48:20;8.90;99.90
3156;DHT22;1588;50.892;7.082;2023-02-16T22:53:25;9.00;99.90
3156;DHT22;1588;50.892;7.082;2023-02-16T22:58:30;9.00;99.90
3156;DHT22;1588;50.892;7.082;2023-02-16T23:03:32;9.10;99.90
3156;DHT22;1588;50.892;7.082;2023-02-16T23:08:35;9.20;99.90
3156;DHT22;1588;50.892;7.082;2023-02-16T23:13:41;9.30;99.90
3156;DHT22;1588;50.892;7.082;2023-02-16T23:18:44;9.30;99.90
3156;DHT22;1588;50.892;7.082;2023-02-16T23:23:48;9.30;99.90
3156;DHT22;1588;50.892;7.082;2023-02-16T23:28:56;9.40;99.90
3156;DHT22;1588;50.892;7.082;2023-02-16T23:34:00;9.50;99.90
3156;DHT22;1588;50.892;7.082;2023-02-16T23:39:05;9.70;99.90
3156;DHT22;1588;50.892;7.082;2023-02-16T23:44:11;9.60;99.90
3156;DHT22;1588;50.892;7.082;2023-02-16T23:49:14;9.60;99.90
3156;DHT22;1588;50.892;7.082;2023-02-16T23:54:16;9.70;99.90
3156;DHT22;1588;50.892;7.082;2023-02-16T23:59:20;9.70;99.90
